Hlavní strana
METAR-TAF:

METAR-TAF

Letiště :

Karlovy Vary, Česká republika

Letiště Karlovy Vary

zeměpisná šířka: 50-12N, zeměpisná délka: 012-55E, výška: 603 m

Aktuální stav počasí

Zpráva byla vytvořena před 31 minutami, v 04:00 UTC
Severozápadní vítr 2 kt
Teplota -3°C
Vlhkost vzduchu 86%
Tlak 1024 hPa
Viditelnost 10 km a více
Oblačno až skoro zataženo ve výšce 1500 ft

METAR: LKKV 180400Z 32002KT 9999 BKN015 M03/M05 Q1024 R29///////

Čas: 05:31 (04:31 UTC)

Předpověď počasí

Zpráva byla vytvořena před 5 hodinami a 31 minutami, v 23:00 UTC
Předpověď platná od 18 v 00 UTC do 19 v 06 UTC
Severovýchodní vítr 5 kt
Viditelnost 10 km a více
Polojasno ve výšce 2300 ft
Změna
od 18 v 08 UTC do 18 v 10 UTC
vítr z různých směrů 2 kt
Viditelnost 10 km a více
Oblačno až skoro zataženo ve výšce 2000 ft
Změna
od 18 v 16 UTC do 18 v 19 UTC
Viditelnost 10 km a více
Žádná oblačnost pod 1500 m, nevyskytují se cumulonimby.

TAF: LKKV 172300Z 1800/1906 05005KT 9999 SCT023 BECMG 1808/1810 VRB02KT 9999 BKN020 BECMG 1816/1819 CAVOK

Stav a předpovědi počasí z více než 4 000 letišť (zprávy METAR a TAF).

Červené a žluté tečky na mapě představují dostupné meteorologické stanice.

Když kurzor umístíte na tečku, zobrazí se název stanice.

Pak kliknutím zobrazíte stav a předpověď počasí.

Chcete-li změnit mapu, kliknutím na zelené tlačítko se znaménkem +mapu přiblížíte, kliknutím na zelené tlačítko se znaménkem – mapu oddálíte a kliknutím na zelené šipky přejdete na sousední mapy.


METAR-TAF: